»·PEaware :: DIHNF L08-KTNP

DIHNF :: L08-KTNP

FLIGHT INFORMATION

Flight Status: Arrived
Operator: Unknown
More flights by this operator :: More flights under this callsign
Pilot: Klaus A. (15485)
Aircraft: BEECH AIRCRAFT BARON
(BE58)
More flights by this aircraft type
Origin: L08 Borrego Valley
United States
Destination: KTNP Twentynine Palms
United States
More flights between these airports :: More routes between these airports
Route: ZUNGU1 ZUNGU V137 TRM V514 TNP
File this flight plan on PilotEdge
Remarks:
Altitude:
(Current/Filed)
10,000ft
Speed:
(Current/Filed)
170kts
Departed: 09-Feb-19 08:45 AM
Arrived: 09-Feb-19 09:28 AM
Distance/Time
Traveled:
56nm/0:43
Distance/Time
To Go:
Arrived

Flight Plot

Page will automatically refresh every two minutes.

Flight plan parsing failed; only flown route is shown


Map Options




Map Legend


Flown Route
Filed Route
Departure Airport
Arrival Airport
Navaid (VOR, NDB)
Fix

Horizontal Profiles

Position Reports

Time Latitude Longitude Heading Altitude Ground
Speed
09-Feb-19 08:28 33.257892 -116.326692 87 524ft 0kts
09-Feb-19 08:29 33.257892 -116.326692 87 524ft 0kts
09-Feb-19 08:30 33.257892 -116.326692 87 524ft 0kts
09-Feb-19 08:31 33.257892 -116.326692 87 524ft 0kts
09-Feb-19 08:32 33.257892 -116.326692 87 524ft 0kts
09-Feb-19 08:33 33.257892 -116.326692 87 524ft 0kts
09-Feb-19 08:34 33.257892 -116.326692 87 524ft 0kts
09-Feb-19 08:35 33.257892 -116.326692 87 524ft 0kts
09-Feb-19 08:36 33.257892 -116.326692 87 524ft 0kts
09-Feb-19 08:37 33.257892 -116.326692 87 524ft 0kts
09-Feb-19 08:38 33.258232 -116.327317 269 524ft 11kts
09-Feb-19 08:39 33.258263 -116.328752 327 524ft 0kts
09-Feb-19 08:40 33.258263 -116.328752 327 524ft 0kts
09-Feb-19 08:41 33.258263 -116.328752 327 524ft 0kts
09-Feb-19 08:42 33.258263 -116.328752 327 524ft 0kts
09-Feb-19 08:43 33.258885 -116.328388 89 524ft 9kts
09-Feb-19 08:44 33.259862 -116.303380 84 1360ft 110kts
09-Feb-19 08:45 33.262213 -116.265049 94 2711ft 120kts
09-Feb-19 08:46 33.261621 -116.223107 99 3888ft 132kts
09-Feb-19 08:47 33.260997 -116.177325 102 4926ft 142kts
09-Feb-19 08:48 33.261772 -116.129378 102 5859ft 149kts
09-Feb-19 08:49 33.263329 -116.078138 98 6710ft 157kts
09-Feb-19 08:50 33.284084 -116.030763 47 7429ft 175kts
09-Feb-19 08:51 33.323841 -116.013680 333 8093ft 156kts
09-Feb-19 08:52 33.358784 -116.035721 311 8771ft 138kts
09-Feb-19 08:53 33.393103 -116.059175 322 9325ft 147kts
09-Feb-19 08:54 33.431849 -116.076860 324 9822ft 151kts
09-Feb-19 08:55 33.473235 -116.095254 328 9945ft 170kts
09-Feb-19 08:56 33.518865 -116.113385 327 9951ft 174kts
09-Feb-19 08:57 33.565094 -116.132129 324 9951ft 173kts
09-Feb-19 08:58 33.610662 -116.152507 326 9950ft 175kts
09-Feb-19 08:59 33.660179 -116.133848 27 9951ft 204kts
09-Feb-19 09:00 33.707747 -116.096388 29 9951ft 205kts
09-Feb-19 09:01 33.755235 -116.058255 29 9967ft 204kts
09-Feb-19 09:02 33.800033 -116.022241 27 9651ft 190kts
09-Feb-19 09:03 33.844344 -115.986562 27 9046ft 192kts
09-Feb-19 09:04 33.885903 -115.946180 48 8478ft 195kts
09-Feb-19 09:05 33.919616 -115.895049 48 7946ft 194kts
09-Feb-19 09:06 33.953377 -115.844055 48 7434ft 193kts
09-Feb-19 09:07 33.985737 -115.793627 47 7155ft 179kts
09-Feb-19 09:08 34.015828 -115.748287 47 7186ft 169kts
09-Feb-19 09:09 34.046146 -115.704682 48 7159ft 169kts
09-Feb-19 09:10 34.075935 -115.661019 49 7163ft 168kts
09-Feb-19 09:11 34.103594 -115.615499 88 7130ft 167kts
09-Feb-19 09:12 34.106330 -115.559871 100 7087ft 164kts
09-Feb-19 09:13 34.095750 -115.509892 172 6700ft 138kts
09-Feb-19 09:14 34.095915 -115.536291 283 6333ft 117kts
09-Feb-19 09:15 34.099336 -115.573007 268 6101ft 107kts
09-Feb-19 09:16 34.098721 -115.607232 272 6073ft 102kts
09-Feb-19 09:17 34.102913 -115.642095 272 5713ft 108kts
09-Feb-19 09:18 34.107701 -115.679923 273 5013ft 118kts
09-Feb-19 09:19 34.112440 -115.719544 270 4751ft 119kts
09-Feb-19 09:21 34.118198 -115.758519 274 3968ft 104kts
09-Feb-19 09:22 34.121367 -115.788794 274 3980ft 91kts
09-Feb-19 09:23 34.123487 -115.820846 276 3686ft 97kts
09-Feb-19 09:24 34.127051 -115.853241 277 3149ft 97kts
09-Feb-19 09:25 34.130869 -115.885559 276 2581ft 95kts
09-Feb-19 09:26 34.133436 -115.917096 272 2081ft 89kts
09-Feb-19 09:27 34.134393 -115.944281 270 1891ft 50kts
09-Feb-19 09:28 34.134806 -115.947349 0 1891ft 0kts
09-Feb-19 09:29 34.135215 -115.946833 92 1889ft 11kts
09-Feb-19 09:30 34.135626 -115.943991 94 1886ft 0kts
09-Feb-19 09:31 34.135627 -115.943992 94 1886ft 0kts
09-Feb-19 09:32 34.135627 -115.943992 94 1886ft 0kts

Navigation Log

Ident Type
Flight plan parsing failed, navigation log unavailable